createdAt,value
2023-04-03T00:00:04.396Z,102920.34
2023-04-03T00:02:06.293Z,102923.69
2023-04-03T00:04:08.192Z,102923.50
2023-04-03T00:06:11.807Z,102919.53
2023-04-03T00:08:14.057Z,102917.78
2023-04-03T00:10:16.622Z,102915.00
2023-04-03T00:12:18.538Z,102914.75
2023-04-03T00:14:20.737Z,102918.81
2023-04-03T00:16:22.549Z,102916.69
2023-04-03T00:18:24.420Z,102921.81
2023-04-03T00:20:27.140Z,102910.44
2023-04-03T00:22:29.769Z,102912.63
2023-04-03T00:24:31.547Z,102909.81
2023-04-03T00:26:33.486Z,102909.16
2023-04-03T00:28:35.543Z,102911.72
2023-04-03T00:30:37.925Z,102911.72
2023-04-03T00:32:40.017Z,102906.28
2023-04-03T00:34:41.820Z,102907.06
2023-04-03T00:36:43.776Z,102902.72
2023-04-03T00:38:45.613Z,102910.50
2023-04-03T00:40:49.754Z,102909.81
2023-04-03T00:42:57.758Z,102911.41
2023-04-03T00:45:01.851Z,102902.28
2023-04-03T00:47:06.974Z,102900.53
2023-04-03T00:49:08.855Z,102898.19
2023-04-03T00:51:15.686Z,102893.72
2023-04-03T00:53:22.931Z,102901.13
2023-04-03T00:55:25.033Z,102895.19
2023-04-03T00:57:28.015Z,102892.63
2023-04-03T00:59:34.604Z,102895.31
2023-04-03T01:01:39.374Z,102890.19
2023-04-03T01:03:41.448Z,102888.00
2023-04-03T01:05:43.285Z,102890.56
2023-04-03T01:07:46.166Z,102889.25
2023-04-03T01:09:52.758Z,102895.25
2023-04-03T01:11:54.576Z,102890.03
2023-04-03T01:13:56.446Z,102895.34
2023-04-03T01:15:58.733Z,102894.38
2023-04-03T01:18:03.951Z,102887.94
2023-04-03T01:20:12.840Z,102891.47
2023-04-03T01:22:27.108Z,102885.97
2023-04-03T01:24:36.385Z,102883.94
2023-04-03T01:26:38.307Z,102888.03
2023-04-03T01:28:40.094Z,102882.16
2023-04-03T01:30:50.039Z,102885.47
2023-04-03T01:32:51.843Z,102883.78
2023-04-03T01:34:53.688Z,102883.19
2023-04-03T01:36:56.022Z,102886.66
2023-04-03T01:39:00.234Z,102881.41
2023-04-03T01:41:02.218Z,102881.09
2023-04-03T01:43:07.228Z,102886.22
2023-04-03T01:45:10.028Z,102885.13
2023-04-03T01:47:11.862Z,102880.66
2023-04-03T01:49:13.673Z,102883.16
2023-04-03T01:51:15.618Z,102883.75
2023-04-03T01:53:17.515Z,102880.56
2023-04-03T01:55:19.938Z,102882.44
2023-04-03T01:57:21.795Z,102880.94
2023-04-03T01:59:23.704Z,102880.94
2023-04-03T02:01:27.045Z,102881.34
2023-04-03T02:03:28.972Z,102872.47
2023-04-03T02:05:31.188Z,102875.03
2023-04-03T02:07:33.168Z,102881.13
2023-04-03T02:09:34.935Z,102882.38
2023-04-03T02:11:36.853Z,102877.16
2023-04-03T02:13:38.616Z,102884.81
2023-04-03T02:15:40.752Z,102880.78
2023-04-03T02:17:42.681Z,102881.13
2023-04-03T02:19:44.553Z,102878.56
2023-04-03T02:21:46.290Z,102879.66
2023-04-03T02:23:48.110Z,102878.56
2023-04-03T02:25:50.314Z,102877.44
2023-04-03T02:27:52.282Z,102874.00
2023-04-03T02:29:54.215Z,102879.50
2023-04-03T02:31:56.362Z,102871.44
2023-04-03T02:33:58.141Z,102870.28
2023-04-03T02:36:00.422Z,102869.03
2023-04-03T02:38:02.272Z,102874.63
2023-04-03T02:40:05.729Z,102865.72
2023-04-03T02:42:08.370Z,102870.59
2023-04-03T02:44:13.356Z,102866.84
2023-04-03T02:46:16.658Z,102868.50
2023-04-03T02:48:18.629Z,102868.59
2023-04-03T02:50:20.393Z,102864.47
2023-04-03T02:52:22.259Z,102865.28
2023-04-03T02:54:25.500Z,102874.50
2023-04-03T02:56:27.873Z,102871.06
2023-04-03T02:58:29.650Z,102862.19
2023-04-03T03:00:31.645Z,102864.06
2023-04-03T03:02:33.464Z,102869.19
2023-04-03T03:04:37.914Z,102865.84
2023-04-03T03:06:39.853Z,102864.94
2023-04-03T03:08:42.376Z,102863.84
2023-04-03T03:10:46.028Z,102862.19
2023-04-03T03:12:47.870Z,102853.53
2023-04-03T03:14:49.766Z,102852.72
2023-04-03T03:16:51.681Z,102857.84
2023-04-03T03:18:53.527Z,102853.84
2023-04-03T03:20:57.732Z,102860.53
2023-04-03T03:22:59.505Z,102854.63
2023-04-03T03:25:02.211Z,102856.97
2023-04-03T03:27:04.105Z,102855.22
2023-04-03T03:29:05.933Z,102856.53
2023-04-03T03:31:08.766Z,102854.06
2023-04-03T03:33:10.613Z,102850.53
2023-04-03T03:35:12.393Z,102847.75
2023-04-03T03:37:14.314Z,102854.97
2023-04-03T03:39:16.301Z,102858.31
2023-04-03T03:41:18.093Z,102852.97
2023-04-03T03:43:21.228Z,102858.88
2023-04-03T03:45:23.053Z,102855.22
2023-04-03T03:47:24.944Z,102854.75
2023-04-03T03:49:26.721Z,102848.66
2023-04-03T03:51:28.688Z,102851.09
2023-04-03T03:53:30.544Z,102845.00
2023-04-03T03:55:32.386Z,102850.09
2023-04-03T03:57:34.159Z,102855.09
2023-04-03T03:59:35.966Z,102849.19
2023-04-03T04:01:40.877Z,102848.97
2023-04-03T04:03:42.874Z,102845.84
2023-04-03T04:05:45.376Z,102846.09
2023-04-03T04:07:47.181Z,102840.88
2023-04-03T04:09:49.124Z,102846.75
2023-04-03T04:11:50.945Z,102844.19
2023-04-03T04:13:52.741Z,102842.00
2023-04-03T04:15:54.586Z,102841.31
2023-04-03T04:17:56.586Z,102842.78
2023-04-03T04:19:58.554Z,102833.66
2023-04-03T04:22:00.454Z,102837.41
2023-04-03T04:24:02.291Z,102849.53
2023-04-03T04:26:04.193Z,102838.53
2023-04-03T04:28:06.522Z,102843.41
2023-04-03T04:30:09.473Z,102844.75
2023-04-03T04:32:11.379Z,102850.31
2023-04-03T04:34:14.142Z,102850.84
2023-04-03T04:36:16.453Z,102847.63
2023-04-03T04:38:18.641Z,102848.53
2023-04-03T04:40:20.522Z,102849.19
2023-04-03T04:42:22.408Z,102843.41
2023-04-03T04:44:24.284Z,102839.53
2023-04-03T04:46:26.192Z,102846.41
2023-04-03T04:48:27.994Z,102850.28
2023-04-03T04:50:29.974Z,102850.94
2023-04-03T04:52:31.693Z,102843.84
2023-04-03T04:54:33.745Z,102844.19
2023-04-03T04:56:35.567Z,102842.28
2023-04-03T04:58:37.389Z,102843.28
2023-04-03T05:00:39.152Z,102845.44
2023-04-03T05:02:41.161Z,102847.31
2023-04-03T05:04:43.097Z,102849.53
2023-04-03T05:06:44.945Z,102841.72
2023-04-03T05:08:46.753Z,102847.09
2023-04-03T05:10:48.701Z,102841.19
2023-04-03T05:12:50.475Z,102845.94
2023-04-03T05:14:52.350Z,102846.03
2023-04-03T05:16:55.004Z,102847.41
2023-04-03T05:18:56.851Z,102847.63
2023-04-03T05:20:59.832Z,102843.09
2023-04-03T05:23:01.944Z,102852.75
2023-04-03T05:25:04.368Z,102854.50
2023-04-03T05:27:06.136Z,102856.28
2023-04-03T05:29:08.027Z,102855.19
2023-04-03T05:31:09.877Z,102857.06
2023-04-03T05:33:12.347Z,102861.44
2023-04-03T05:35:14.675Z,102863.31
2023-04-03T05:37:16.865Z,102859.00
2023-04-03T05:39:19.022Z,102855.88
2023-04-03T05:41:21.992Z,102864.31
2023-04-03T05:43:23.949Z,102863.22
2023-04-03T05:45:25.898Z,102868.66
2023-04-03T05:47:27.901Z,102860.00
2023-04-03T05:49:29.871Z,102868.22
2023-04-03T05:51:36.542Z,102862.13
2023-04-03T05:53:38.484Z,102863.44
2023-04-03T05:55:40.315Z,102864.22
2023-04-03T05:57:42.178Z,102861.22
2023-04-03T05:59:45.651Z,102866.34
2023-04-03T06:01:47.955Z,102864.09
2023-04-03T06:03:50.008Z,102864.00
2023-04-03T06:05:52.071Z,102861.88
2023-04-03T06:07:53.913Z,102866.34
2023-04-03T06:09:57.620Z,102863.44
2023-04-03T06:11:59.926Z,102865.44
2023-04-03T06:14:01.841Z,102869.22
2023-04-03T06:16:05.076Z,102860.06
2023-04-03T06:18:08.009Z,102870.56
2023-04-03T06:20:11.080Z,102864.75
2023-04-03T06:22:13.063Z,102869.97
2023-04-03T06:24:17.272Z,102878.09
2023-04-03T06:26:19.140Z,102873.19
2023-04-03T06:28:21.049Z,102871.63
2023-04-03T06:30:23.046Z,102878.63
2023-04-03T06:32:24.951Z,102884.31
2023-04-03T06:34:26.998Z,102878.88
2023-04-03T06:36:29.154Z,102876.53
2023-04-03T06:38:31.227Z,102880.66
2023-04-03T06:40:33.214Z,102885.09
2023-04-03T06:42:35.249Z,102878.75
2023-04-03T06:44:37.126Z,102890.53
2023-04-03T06:46:40.169Z,102883.09
2023-04-03T06:48:44.974Z,102878.31
2023-04-03T06:50:46.843Z,102882.53
2023-04-03T06:52:48.727Z,102875.06
2023-04-03T06:54:52.861Z,102869.84
2023-04-03T06:56:54.750Z,102875.19
2023-04-03T06:58:58.744Z,102879.19
2023-04-03T07:01:01.319Z,102877.84
2023-04-03T07:03:03.927Z,102876.28
2023-04-03T07:05:07.153Z,102880.31
2023-04-03T07:07:09.523Z,102876.94
2023-04-03T07:09:12.437Z,102877.81
2023-04-03T07:11:14.602Z,102879.13
2023-04-03T07:13:16.785Z,102876.25
2023-04-03T07:15:18.857Z,102890.03
2023-04-03T07:17:21.209Z,102883.69
2023-04-03T07:19:23.257Z,102878.88
2023-04-03T07:21:25.554Z,102878.78
2023-04-03T07:23:28.907Z,102874.19
2023-04-03T07:25:31.207Z,102872.44
2023-04-03T07:27:35.082Z,102874.00
2023-04-03T07:29:37.379Z,102874.38
2023-04-03T07:31:41.005Z,102879.31
2023-04-03T07:33:43.610Z,102879.22
2023-04-03T07:35:46.379Z,102880.00
2023-04-03T07:37:48.385Z,102878.88
2023-04-03T07:39:50.445Z,102880.63
2023-04-03T07:41:52.626Z,102877.06
2023-04-03T07:43:54.721Z,102873.25
2023-04-03T07:45:57.106Z,102871.47
2023-04-03T07:47:59.147Z,102871.41
2023-04-03T07:50:01.070Z,102872.31
2023-04-03T07:52:04.600Z,102863.69
2023-04-03T07:54:06.764Z,102870.00
2023-04-03T07:56:09.225Z,102871.06
2023-04-03T07:58:12.145Z,102878.25
2023-04-03T08:00:15.123Z,102883.81
2023-04-03T08:02:17.070Z,102886.56
2023-04-03T08:04:19.201Z,102893.16
2023-04-03T08:06:29.380Z,102888.16
2023-04-03T08:08:36.654Z,102881.06
2023-04-03T08:10:38.875Z,102886.41
2023-04-03T08:12:41.048Z,102878.53
2023-04-03T08:14:42.973Z,102882.59
2023-04-03T08:16:46.862Z,102880.13
2023-04-03T08:18:49.360Z,102885.34
2023-04-03T08:20:52.760Z,102879.84
2023-04-03T08:22:55.058Z,102883.72
2023-04-03T08:24:59.251Z,102880.56
2023-04-03T08:27:02.192Z,102883.41
2023-04-03T08:29:04.655Z,102882.75
2023-04-03T08:31:16.626Z,102889.03
2023-04-03T08:33:18.657Z,102893.47
2023-04-03T08:35:21.648Z,102889.44
2023-04-03T08:37:23.655Z,102892.97
2023-04-03T08:39:26.091Z,102898.13
2023-04-03T08:41:34.304Z,102888.47
2023-04-03T08:43:43.767Z,102886.88
2023-04-03T08:45:51.798Z,102883.91
2023-04-03T08:48:01.893Z,102884.13
2023-04-03T08:50:10.828Z,102878.09
2023-04-03T08:52:16.714Z,102880.84
2023-04-03T08:54:28.417Z,102887.66
2023-04-03T08:56:32.561Z,102890.50
2023-04-03T08:58:47.015Z,102887.22
2023-04-03T09:00:59.127Z,102885.75
2023-04-03T09:03:01.575Z,102880.09
2023-04-03T09:05:13.836Z,102894.59
2023-04-03T09:07:32.815Z,102877.59
2023-04-03T09:09:42.419Z,102878.28
2023-04-03T09:11:54.576Z,102877.91
2023-04-03T09:14:04.198Z,102872.81
2023-04-03T09:16:21.586Z,102871.59
2023-04-03T09:18:37.103Z,102869.91
2023-04-03T09:20:45.079Z,102864.53
2023-04-03T09:22:52.165Z,102866.16
2023-04-03T09:25:18.175Z,102864.22
2023-04-03T09:27:20.183Z,102858.19
2023-04-03T09:29:24.909Z,102859.63
2023-04-03T09:31:30.726Z,102859.81
2023-04-03T09:33:32.935Z,102858.00
2023-04-03T09:35:47.329Z,102852.38
2023-04-03T09:37:53.109Z,102856.97
2023-04-03T09:39:57.167Z,102857.06
2023-04-03T09:42:04.786Z,102855.38
2023-04-03T09:44:22.962Z,102858.81
2023-04-03T09:46:36.074Z,102850.66
2023-04-03T09:48:40.850Z,102849.22
2023-04-03T09:50:51.900Z,102858.34
2023-04-03T09:52:53.869Z,102858.78
2023-04-03T09:55:09.790Z,102860.50
2023-04-03T09:57:14.504Z,102860.50
2023-04-03T09:59:18.134Z,102857.28
2023-04-03T10:01:31.991Z,102855.47
2023-04-03T10:03:36.895Z,102856.66
2023-04-03T10:05:42.720Z,102856.50
2023-04-03T10:07:51.498Z,102852.59
2023-04-03T10:10:00.304Z,102848.84
2023-04-03T10:12:07.036Z,102850.19
2023-04-03T10:14:18.555Z,102847.44
2023-04-03T10:16:28.652Z,102849.03
2023-04-03T10:18:34.415Z,102860.94
2023-04-03T10:20:41.003Z,102853.84
2023-04-03T10:22:52.997Z,102849.09
2023-04-03T10:25:12.203Z,102856.25
2023-04-03T10:27:19.800Z,102855.97
2023-04-03T10:29:32.704Z,102855.53
2023-04-03T10:31:50.371Z,102852.81
2023-04-03T10:34:11.828Z,102849.50
2023-04-03T10:36:26.056Z,102856.31
2023-04-03T10:38:29.489Z,102853.28
2023-04-03T10:40:36.219Z,102858.75
2023-04-03T10:42:38.726Z,102848.28
2023-04-03T10:44:55.729Z,102854.16
2023-04-03T10:47:07.910Z,102852.63
2023-04-03T10:49:21.420Z,102850.41
2023-04-03T10:51:30.935Z,102845.91
2023-04-03T10:53:52.725Z,102841.53
2023-04-03T10:56:08.219Z,102844.03
2023-04-03T10:58:24.589Z,102845.25
2023-04-03T11:00:38.964Z,102841.16
2023-04-03T11:03:09.814Z,102843.97
2023-04-03T11:05:40.992Z,102843.47
2023-04-03T11:07:49.138Z,102845.81
2023-04-03T11:09:59.818Z,102841.72
2023-04-03T11:12:11.300Z,102838.34
2023-04-03T11:14:27.400Z,102836.41
2023-04-03T11:16:37.872Z,102834.22
2023-04-03T11:18:55.141Z,102828.66
2023-04-03T11:21:05.350Z,102826.66
2023-04-03T11:23:17.353Z,102816.41
2023-04-03T11:25:24.592Z,102809.41
2023-04-03T11:27:28.734Z,102809.44
2023-04-03T11:29:41.927Z,102815.44
2023-04-03T11:31:50.764Z,102806.66
2023-04-03T11:34:00.368Z,102806.66
2023-04-03T11:36:19.036Z,102806.53
2023-04-03T11:38:35.920Z,102805.94
2023-04-03T11:40:39.686Z,102798.69
2023-04-03T11:42:44.026Z,102803.09
2023-04-03T11:44:46.169Z,102797.09
2023-04-03T11:46:58.298Z,102790.63
2023-04-03T11:49:00.452Z,102797.50
2023-04-03T11:51:23.628Z,102794.53
2023-04-03T11:53:30.439Z,102786.66
2023-04-03T11:55:32.736Z,102788.53
2023-04-03T11:57:46.257Z,102787.06
2023-04-03T11:59:48.350Z,102781.34
2023-04-03T12:01:50.774Z,102776.09
2023-04-03T12:03:53.167Z,102774.63
2023-04-03T12:06:00.751Z,102777.44
2023-04-03T12:08:21.754Z,102772.53
2023-04-03T12:12:36.676Z,102773.44
2023-04-03T12:14:41.464Z,102764.03
2023-04-03T12:16:47.318Z,102758.41
2023-04-03T12:18:50.701Z,102759.97
2023-04-03T12:20:53.457Z,102763.81
2023-04-03T12:23:09.008Z,102762.69
2023-04-03T12:25:44.225Z,102746.22
2023-04-03T12:27:46.296Z,102752.50
2023-04-03T12:29:50.720Z,102755.06
2023-04-03T12:32:15.628Z,102752.31
2023-04-03T12:34:40.252Z,102749.78
2023-04-03T12:36:59.967Z,102752.69
2023-04-03T12:39:12.447Z,102739.75
2023-04-03T12:41:19.953Z,102735.66
2023-04-03T12:43:30.036Z,102744.75
2023-04-03T12:45:42.441Z,102742.00
2023-04-03T12:47:46.131Z,102753.75
2023-04-03T12:49:53.211Z,102746.47
2023-04-03T12:51:56.163Z,102739.78
2023-04-03T12:54:03.786Z,102732.53
2023-04-03T12:56:24.666Z,102729.03
2023-04-03T12:58:27.880Z,102728.50
2023-04-03T13:00:34.544Z,102727.41
2023-04-03T13:02:36.913Z,102735.50
2023-04-03T13:04:39.800Z,102729.28
2023-04-03T13:06:44.902Z,102725.66
2023-04-03T13:08:54.070Z,102721.13
2023-04-03T13:11:02.504Z,102723.66
2023-04-03T13:13:16.479Z,102728.22
2023-04-03T13:15:29.587Z,102726.22
2023-04-03T13:17:33.225Z,102729.00
2023-04-03T13:19:35.562Z,102723.59
2023-04-03T13:21:37.766Z,102723.03
2023-04-03T13:23:46.023Z,102721.16
2023-04-03T13:25:49.452Z,102721.22
2023-04-03T13:27:53.834Z,102714.22
2023-04-03T13:30:02.696Z,102709.94
2023-04-03T13:32:06.705Z,102716.78
2023-04-03T13:34:12.595Z,102709.38
2023-04-03T13:36:21.681Z,102700.59
2023-04-03T13:38:32.590Z,102706.50
2023-04-03T13:40:47.050Z,102709.16
2023-04-03T13:43:01.328Z,102711.66
2023-04-03T13:45:21.060Z,102700.94
2023-04-03T13:47:25.758Z,102699.16
2023-04-03T13:49:37.168Z,102697.03
2023-04-03T13:51:40.304Z,102697.75
2023-04-03T13:53:49.669Z,102679.13
2023-04-03T13:55:58.695Z,102679.44
2023-04-03T13:58:10.159Z,102687.00
2023-04-03T14:00:30.694Z,102687.59
2023-04-03T14:02:34.760Z,102687.88
2023-04-03T14:04:45.358Z,102686.88
2023-04-03T14:06:47.642Z,102676.09
2023-04-03T14:08:50.364Z,102675.50
2023-04-03T14:10:52.888Z,102674.63
2023-04-03T14:12:54.886Z,102670.88
2023-04-03T14:14:57.243Z,102679.84
2023-04-03T14:17:02.585Z,102671.47
2023-04-03T14:19:04.847Z,102667.69
2023-04-03T14:21:06.961Z,102667.00
2023-04-03T14:23:10.290Z,102674.38
2023-04-03T14:25:13.291Z,102663.25
2023-04-03T14:27:28.201Z,102668.78
2023-04-03T14:29:30.090Z,102656.00
2023-04-03T14:31:32.184Z,102652.72
2023-04-03T14:33:36.859Z,102645.66
2023-04-03T14:35:38.856Z,102649.00
2023-04-03T14:37:41.338Z,102642.63
2023-04-03T14:39:43.993Z,102648.53
2023-04-03T14:41:49.430Z,102644.88
2023-04-03T14:43:54.569Z,102651.66
2023-04-03T14:45:56.763Z,102652.72
2023-04-03T14:48:00.152Z,102645.09
2023-04-03T14:50:04.327Z,102638.88
2023-04-03T14:52:06.968Z,102647.22
2023-04-03T14:54:22.692Z,102637.31
2023-04-03T14:56:28.418Z,102635.81
2023-04-03T14:58:33.008Z,102636.97
2023-04-03T15:00:35.218Z,102623.56
2023-04-03T15:02:39.940Z,102622.75
2023-04-03T15:04:42.226Z,102630.25
2023-04-03T15:06:45.247Z,102618.13
2023-04-03T15:08:48.746Z,102615.75
2023-04-03T15:10:51.209Z,102618.88
2023-04-03T15:12:53.686Z,102610.75
2023-04-03T15:15:01.138Z,102611.66
2023-04-03T15:17:07.252Z,102608.47
2023-04-03T15:19:09.282Z,102610.22
2023-04-03T15:21:11.712Z,102607.53
2023-04-03T15:23:16.969Z,102598.44
2023-04-03T15:25:19.391Z,102597.44
2023-04-03T15:27:21.460Z,102594.44
2023-04-03T15:29:23.431Z,102588.09
2023-04-03T15:31:25.447Z,102587.19
2023-04-03T15:33:27.540Z,102585.75
2023-04-03T15:35:29.618Z,102579.59
2023-04-03T15:37:31.960Z,102593.25
2023-04-03T15:39:34.000Z,102592.63
2023-04-03T15:41:36.323Z,102594.09
2023-04-03T15:43:38.261Z,102588.72
2023-04-03T15:45:41.924Z,102588.97
2023-04-03T15:47:44.377Z,102591.06
2023-04-03T15:49:46.478Z,102595.09
2023-04-03T15:51:48.431Z,102591.78
2023-04-03T15:53:50.696Z,102591.25
2023-04-03T15:55:52.625Z,102596.69
2023-04-03T15:57:55.157Z,102589.94
2023-04-03T15:59:57.741Z,102599.72
2023-04-03T16:02:02.549Z,102593.34
2023-04-03T16:04:05.679Z,102596.19
2023-04-03T16:06:10.724Z,102596.22
2023-04-03T16:08:13.676Z,102597.28
2023-04-03T16:10:18.320Z,102585.81
2023-04-03T16:12:20.620Z,102590.38
2023-04-03T16:14:22.593Z,102594.19
2023-04-03T16:16:28.401Z,102599.16
2023-04-03T16:18:35.448Z,102604.78
2023-04-03T16:20:38.522Z,102604.66
2023-04-03T16:22:41.457Z,102608.63
2023-04-03T16:24:43.577Z,102601.75
2023-04-03T16:26:45.837Z,102607.38
2023-04-03T16:28:47.924Z,102610.75
2023-04-03T16:30:50.721Z,102613.47
2023-04-03T16:32:53.097Z,102603.94
2023-04-03T16:34:55.101Z,102601.72
2023-04-03T16:36:57.312Z,102606.16
2023-04-03T16:38:59.288Z,102605.56
2023-04-03T16:41:05.505Z,102607.94
2023-04-03T16:43:07.592Z,102611.28
2023-04-03T16:45:10.174Z,102613.81
2023-04-03T16:47:13.957Z,102616.25
2023-04-03T16:49:16.789Z,102602.94
2023-04-03T16:51:18.890Z,102601.56
2023-04-03T16:53:22.069Z,102612.13
2023-04-03T16:55:24.129Z,102616.06
2023-04-03T16:57:26.237Z,102617.41
2023-04-03T16:59:28.450Z,102618.66
2023-04-03T17:01:30.750Z,102614.09
2023-04-03T17:03:33.580Z,102617.75
2023-04-03T17:05:36.080Z,102624.56
2023-04-03T17:07:38.167Z,102624.84
2023-04-03T17:09:40.114Z,102620.91
2023-04-03T17:11:42.697Z,102617.31
2023-04-03T17:13:46.984Z,102617.66
2023-04-03T17:15:49.309Z,102617.03
2023-04-03T17:17:53.354Z,102620.47
2023-04-03T17:19:56.761Z,102621.78
2023-04-03T17:21:59.503Z,102626.84
2023-04-03T17:24:04.683Z,102618.72
2023-04-03T17:26:06.809Z,102617.44
2023-04-03T17:28:09.054Z,102624.00
2023-04-03T17:30:11.841Z,102612.47
2023-04-03T17:32:13.971Z,102615.13
2023-04-03T17:34:16.255Z,102618.00
2023-04-03T17:36:18.373Z,102625.50
2023-04-03T17:38:20.389Z,102626.47
2023-04-03T17:40:22.343Z,102628.72
2023-04-03T17:42:24.307Z,102629.94
2023-04-03T17:44:26.451Z,102633.44
2023-04-03T17:46:28.646Z,102627.03
2023-04-03T17:48:32.347Z,102630.97
2023-04-03T17:50:34.373Z,102633.84
2023-04-03T17:52:36.430Z,102637.56
2023-04-03T17:54:38.468Z,102638.59
2023-04-03T17:56:40.589Z,102637.00
2023-04-03T17:58:42.862Z,102638.56
2023-04-03T18:00:45.126Z,102633.78
2023-04-03T18:02:47.116Z,102629.88
2023-04-03T18:04:53.282Z,102639.09
2023-04-03T18:06:56.177Z,102635.97
2023-04-03T18:09:09.089Z,102639.94
2023-04-03T18:11:11.447Z,102639.75
2023-04-03T18:13:14.843Z,102643.84
2023-04-03T18:15:17.982Z,102639.75
2023-04-03T18:17:19.951Z,102627.72
2023-04-03T18:19:23.463Z,102627.13
2023-04-03T18:21:26.144Z,102625.84
2023-04-03T18:23:31.325Z,102621.31
2023-04-03T18:27:40.787Z,102628.59
2023-04-03T18:29:45.598Z,102626.78
2023-04-03T18:31:53.032Z,102631.47
2023-04-03T18:33:59.135Z,102619.19
2023-04-03T18:36:05.066Z,102625.00
2023-04-03T18:38:07.101Z,102629.41
2023-04-03T18:40:10.412Z,102625.06
2023-04-03T18:42:17.250Z,102623.16
2023-04-03T18:44:23.058Z,102632.72
2023-04-03T18:46:25.204Z,102623.78
2023-04-03T18:48:28.152Z,102634.97
2023-04-03T18:50:31.888Z,102636.81
2023-04-03T18:52:34.241Z,102635.53
2023-04-03T18:54:37.553Z,102646.09
2023-04-03T18:56:39.583Z,102649.13
2023-04-03T18:58:41.663Z,102648.91
2023-04-03T19:00:43.818Z,102648.91
2023-04-03T19:02:46.391Z,102655.44
2023-04-03T19:04:48.931Z,102653.00
2023-04-03T19:06:51.773Z,102650.44
2023-04-03T19:08:54.030Z,102650.50
2023-04-03T19:10:56.076Z,102657.75
2023-04-03T19:12:58.178Z,102657.59
2023-04-03T19:15:00.198Z,102660.47
2023-04-03T19:17:04.212Z,102664.72
2023-04-03T19:19:06.667Z,102670.47
2023-04-03T19:21:08.789Z,102666.50
2023-04-03T19:23:10.993Z,102675.44
2023-04-03T19:25:13.310Z,102674.28
2023-04-03T19:27:15.392Z,102680.56
2023-04-03T19:29:18.061Z,102673.34
2023-04-03T19:31:22.390Z,102676.66
2023-04-03T19:33:25.875Z,102678.97
2023-04-03T19:35:28.045Z,102676.66
2023-04-03T19:37:30.573Z,102681.69
2023-04-03T19:39:35.367Z,102684.75
2023-04-03T19:41:38.318Z,102680.84
2023-04-03T19:43:40.538Z,102678.53
2023-04-03T19:45:44.138Z,102693.59
2023-04-03T19:47:47.310Z,102681.72
2023-04-03T19:49:49.493Z,102684.66
2023-04-03T19:51:51.546Z,102680.91
2023-04-03T19:53:53.756Z,102682.94
2023-04-03T19:55:57.437Z,102694.47
2023-04-03T19:58:00.904Z,102692.56
2023-04-03T20:00:03.272Z,102684.28
2023-04-03T20:02:05.690Z,102689.56
2023-04-03T20:04:08.263Z,102687.50
2023-04-03T20:06:10.359Z,102687.41
2023-04-03T20:08:12.628Z,102694.19
2023-04-03T20:10:16.456Z,102691.75
2023-04-03T20:12:18.738Z,102690.59
2023-04-03T20:14:21.104Z,102693.16
2023-04-03T20:16:26.071Z,102696.09
2023-04-03T20:18:28.923Z,102691.66
2023-04-03T20:20:31.192Z,102699.72
2023-04-03T20:22:39.870Z,102702.56
2023-04-03T20:24:42.114Z,102704.34
2023-04-03T20:26:46.562Z,102696.13
2023-04-03T20:28:48.970Z,102702.56
2023-04-03T20:30:52.686Z,102702.59
2023-04-03T20:32:55.965Z,102698.97
2023-04-03T20:35:04.460Z,102704.63
2023-04-03T20:37:07.087Z,102700.28
2023-04-03T20:39:09.444Z,102693.03
2023-04-03T20:41:11.561Z,102689.13
2023-04-03T20:43:13.658Z,102687.19
2023-04-03T20:45:15.838Z,102681.66
2023-04-03T20:47:18.454Z,102689.22
2023-04-03T20:49:21.339Z,102691.06
2023-04-03T20:51:24.351Z,102689.13
2023-04-03T20:53:27.393Z,102699.22
2023-04-03T20:55:30.117Z,102698.50
2023-04-03T20:57:33.982Z,102694.91
2023-04-03T20:59:39.617Z,102695.69
2023-04-03T21:01:41.733Z,102695.06
2023-04-03T21:03:46.444Z,102698.88
2023-04-03T21:05:48.517Z,102699.22
2023-04-03T21:08:10.952Z,102696.47
2023-04-03T21:10:32.643Z,102705.22
2023-04-03T21:12:53.532Z,102702.31
2023-04-03T21:15:14.847Z,102697.97
2023-04-03T21:17:16.893Z,102694.91
2023-04-03T21:19:20.505Z,102699.03
2023-04-03T21:21:24.747Z,102688.50
2023-04-03T21:23:28.582Z,102692.66
2023-04-03T21:25:30.975Z,102689.84
2023-04-03T21:27:32.923Z,102693.91
2023-04-03T21:29:34.938Z,102687.00
2023-04-03T21:31:58.071Z,102686.19
2023-04-03T21:34:00.911Z,102690.91
2023-04-03T21:36:03.501Z,102686.44
2023-04-03T21:38:05.936Z,102686.09
2023-04-03T21:40:08.686Z,102685.31
2023-04-03T21:42:10.654Z,102686.09
2023-04-03T21:44:12.645Z,102688.00
2023-04-03T21:46:14.591Z,102682.13
2023-04-03T21:48:20.636Z,102684.34
2023-04-03T21:50:22.625Z,102684.69
2023-04-03T21:52:24.641Z,102685.31
2023-04-03T21:54:26.672Z,102688.16
2023-04-03T21:56:29.052Z,102677.44
2023-04-03T21:58:32.537Z,102687.72
2023-04-03T22:00:34.747Z,102689.66
2023-04-03T22:02:41.111Z,102692.94
2023-04-03T22:04:43.203Z,102697.50
2023-04-03T22:06:46.032Z,102693.03
2023-04-03T22:08:48.176Z,102700.16
2023-04-03T22:10:50.160Z,102695.09
2023-04-03T22:12:52.593Z,102692.28
2023-04-03T22:14:54.605Z,102689.88
2023-04-03T22:16:57.923Z,102683.66
2023-04-03T22:18:59.949Z,102686.59
2023-04-03T22:21:02.179Z,102692.94
2023-04-03T22:23:04.924Z,102691.59
2023-04-03T22:25:07.796Z,102694.00
2023-04-03T22:27:09.736Z,102689.88
2023-04-03T22:29:13.317Z,102690.88
2023-04-03T22:31:16.543Z,102688.59
2023-04-03T22:33:18.935Z,102693.34
2023-04-03T22:35:21.603Z,102686.34
2023-04-03T22:37:23.515Z,102684.75
2023-04-03T22:39:25.379Z,102688.13
2023-04-03T22:41:27.360Z,102694.78
2023-04-03T22:43:33.595Z,102696.13
2023-04-03T22:45:35.718Z,102692.50
2023-04-03T22:47:38.089Z,102698.38
2023-04-03T22:49:40.009Z,102695.72
2023-04-03T22:51:41.969Z,102694.50
2023-04-03T22:53:43.956Z,102699.19
2023-04-03T22:55:55.564Z,102706.63
2023-04-03T22:57:57.512Z,102711.25
2023-04-03T22:59:59.357Z,102714.25
2023-04-03T23:02:01.632Z,102716.81
2023-04-03T23:04:03.883Z,102713.72
2023-04-03T23:06:06.714Z,102723.53
2023-04-03T23:08:08.683Z,102719.19
2023-04-03T23:10:12.080Z,102708.72
2023-04-03T23:12:14.026Z,102714.72
2023-04-03T23:14:15.929Z,102714.06
2023-04-03T23:16:19.260Z,102715.84
2023-04-03T23:18:21.886Z,102715.75
2023-04-03T23:20:23.933Z,102721.19
2023-04-03T23:22:26.059Z,102720.19
2023-04-03T23:24:28.392Z,102723.75
2023-04-03T23:26:30.415Z,102729.25
2023-04-03T23:28:33.570Z,102722.66
2023-04-03T23:30:35.621Z,102724.44
2023-04-03T23:32:37.657Z,102724.75
2023-04-03T23:34:39.638Z,102725.75
2023-04-03T23:36:41.647Z,102717.19
2023-04-03T23:38:43.582Z,102717.28
2023-04-03T23:40:46.406Z,102720.91
2023-04-03T23:42:48.393Z,102717.06
2023-04-03T23:44:50.270Z,102715.50